« Back
NWS Peachtree City, Ga » Text Product » MCN Terminal Aerodrome Forecast


Printer-friendly Version
Current Version              Previous Versions:   1  2  3  4  5  6  7  8  9  

Terminal Aerodrome Forecast

367
FTUS42 KFFC 290933 AAD
TAFMCN
TAF AMD
KMCN 290933Z 2910/3006 00000KT 5SM BR SCT003 SCT150
      TEMPO 2910/2912 1SM BR BKN002
     FM291330 25006KT P6SM SCT040 SCT250 PROB30 2919/2923 VRB10G25KT
      4SM TSRA BR BKN035CB
     FM300000 23003KT P6SM SCT080=



USA.gov is the U.S. government's official web portal to all federal, state and local government web resources and services.